Time;durP1;ratioP1;P1;durP2;ratioP2;P2;SDS_P1;SDS_P2;PMS_P1;PMS_P2;Temp;Humidity;BMP_temperature;BMP_pressure;BME280_temperature;BME280_humidity;BME280_pressure;Samples;Min_cycle;Max_cycle;Signal;HPM_P1;HPM_P2
2021/11/06 00:01:16;;;;;;;49.05;27.98;;;5.20;99.90;;;;;;5072907;28;20032;-74
2021/11/06 00:03:42;;;;;;;48.88;27.17;;;5.30;99.90;;;;;;5071678;28;20021;-74
2021/11/06 00:06:08;;;;;;;55.47;27.92;;;5.20;99.90;;;;;;5072905;28;20424;-74
2021/11/06 00:08:33;;;;;;;56.33;29.20;;;5.20;99.90;;;;;;5072744;28;20047;-75
2021/11/06 00:10:59;;;;;;;56.25;28.48;;;5.20;99.90;;;;;;5071520;28;20455;-74
2021/11/06 00:13:25;;;;;;;51.05;28.95;;;5.20;99.90;;;;;;5071543;28;20020;-74
2021/11/06 00:15:51;;;;;;;57.35;28.13;;;5.20;99.90;;;;;;5072671;28;20402;-74
2021/11/06 00:18:16;;;;;;;50.63;28.73;;;5.20;99.90;;;;;;5072750;28;20032;-74
2021/11/06 00:20:42;;;;;;;54.03;29.15;;;5.20;99.90;;;;;;5072688;28;20028;-74
2021/11/06 00:23:08;;;;;;;46.80;25.70;;;5.30;99.90;;;;;;5072157;28;20082;-74
2021/11/06 00:25:33;;;;;;;44.15;26.20;;;5.20;99.90;;;;;;5076581;28;20104;-74
2021/11/06 00:28:00;;;;;;;44.83;27.55;;;5.30;99.90;;;;;;5076813;28;20029;-74
2021/11/06 00:30:25;;;;;;;47.05;27.23;;;5.30;99.90;;;;;;5076651;28;20028;-74
2021/11/06 00:32:51;;;;;;;44.35;25.02;;;5.40;99.90;;;;;;5074511;28;20017;-74
2021/11/06 00:35:18;;;;;;;41.85;26.05;;;5.40;99.90;;;;;;5076591;28;20083;-74
2021/11/06 00:37:45;;;;;;;48.08;26.40;;;5.40;99.90;;;;;;5076573;28;20013;-74
2021/11/06 00:40:12;;;;;;;47.08;25.27;;;5.40;99.90;;;;;;5075520;28;20428;-74
2021/11/06 00:42:38;;;;;;;41.47;23.42;;;5.40;99.90;;;;;;5079584;28;20359;-74
2021/11/06 00:45:07;;;;;;;43.17;26.40;;;5.50;99.90;;;;;;5096751;28;20035;-74
2021/11/06 00:47:33;;;;;;;41.95;23.00;;;5.40;99.90;;;;;;5093359;28;20021;-74
2021/11/06 00:49:59;;;;;;;48.03;25.92;;;5.50;99.90;;;;;;5075088;28;20024;-74
2021/11/06 00:52:24;;;;;;;47.13;24.10;;;5.50;99.90;;;;;;5075033;28;20028;-74
2021/11/06 00:54:50;;;;;;;48.97;24.20;;;5.50;99.90;;;;;;5076138;28;20078;-74
2021/11/06 00:57:16;;;;;;;45.63;25.20;;;5.50;99.90;;;;;;5076319;28;20434;-74
2021/11/06 00:59:41;;;;;;;45.50;25.73;;;5.50;99.90;;;;;;5076120;28;20027;-75
2021/11/06 01:02:07;;;;;;;44.28;24.98;;;5.50;99.90;;;;;;5087597;28;20039;-74
2021/11/06 01:04:33;;;;;;;46.53;24.83;;;5.50;99.90;;;;;;5096326;28;20059;-75
2021/11/06 01:06:58;;;;;;;47.80;25.77;;;5.50;99.90;;;;;;5095113;28;20386;-75
2021/11/06 01:09:24;;;;;;;51.38;26.17;;;5.50;99.90;;;;;;5096415;28;20047;-75
2021/11/06 01:11:50;;;;;;;50.90;26.30;;;5.40;99.90;;;;;;5096258;28;20473;-75
2021/11/06 01:14:16;;;;;;;45.55;27.42;;;5.40;99.90;;;;;;5096153;28;20474;-74
2021/11/06 01:16:42;;;;;;;50.80;26.20;;;5.40;99.90;;;;;;5096057;28;20032;-74
2021/11/06 01:19:08;;;;;;;47.65;27.58;;;5.40;99.90;;;;;;5094892;28;20016;-74
2021/11/06 01:21:33;;;;;;;49.40;25.77;;;5.30;99.90;;;;;;5094794;28;20024;-75
2021/11/06 01:23:59;;;;;;;44.42;24.80;;;5.30;99.90;;;;;;5090295;28;20024;-75
2021/11/06 01:26:25;;;;;;;55.28;27.17;;;5.30;99.90;;;;;;5075775;28;20066;-74
2021/11/06 01:28:50;;;;;;;45.35;26.35;;;5.30;99.90;;;;;;5074353;28;20458;-75
2021/11/06 01:31:16;;;;;;;45.83;23.92;;;5.30;99.90;;;;;;5075617;28;20028;-75
2021/11/06 01:33:42;;;;;;;47.60;24.45;;;5.20;99.90;;;;;;5075621;28;20409;-75
2021/11/06 01:36:07;;;;;;;48.50;26.35;;;5.30;99.90;;;;;;5074525;28;20032;-75
2021/11/06 01:38:33;;;;;;;45.28;25.33;;;5.30;99.90;;;;;;5075505;28;20016;-74
2021/11/06 01:40:59;;;;;;;50.30;25.45;;;5.20;99.90;;;;;;5074165;28;20558;-74
2021/11/06 01:43:26;;;;;;;46.38;25.38;;;5.20;99.90;;;;;;5075422;28;20095;-74
2021/11/06 01:45:59;;;;;;;45.60;26.10;;;5.20;99.90;;;;;;5075293;28;20052;-74
2021/11/06 01:48:27;;;;;;;45.95;26.15;;;5.20;99.90;;;;;;5075321;28;20466;-74
2021/11/06 01:50:58;;;;;;;49.33;25.45;;;5.20;99.90;;;;;;5075238;28;20024;-74
2021/11/06 01:53:46;;;;;;;47.67;24.80;;;5.20;99.90;;;;;;5073227;28;20106;-74
2021/11/06 01:59:10;;;;;;;51.13;25.92;;;5.20;99.90;;;;;;5058760;28;20540;-75
2021/11/06 02:01:49;;;;;;;49.00;26.40;;;5.10;99.90;;;;;;5072856;28;20044;-75
2021/11/06 02:04:49;;;;;;;47.95;25.45;;;5.10;99.90;;;;;;5072265;28;20040;-75
2021/11/06 02:07:23;;;;;;;50.17;26.33;;;5.20;99.90;;;;;;5003299;28;20039;-75
2021/11/06 02:10:16;;;;;;;52.97;25.83;;;5.10;99.90;;;;;;4988473;28;20069;-75
2021/11/06 02:13:02;;;;;;;49.97;26.48;;;5.10;99.90;;;;;;5035311;28;20483;-75
2021/11/06 02:15:56;;;;;;;45.97;25.17;;;5.10;99.90;;;;;;5021466;28;20420;-75
2021/11/06 02:18:55;;;;;;;51.40;26.33;;;5.10;99.90;;;;;;5012779;28;20088;-75
2021/11/06 02:21:53;;;;;;;41.50;22.85;;;5.10;99.90;;;;;;4925863;28;20045;-75
2021/11/06 02:24:40;;;;;;;49.83;24.08;;;5.10;99.90;;;;;;4938303;29;20114;-74
2021/11/06 02:27:19;;;;;;;51.78;26.10;;;5.00;99.90;;;;;;4885845;29;20041;-74
2021/11/06 02:29:51;;;;;;;48.78;24.23;;;5.00;99.90;;;;;;4898232;29;20089;-74
2021/11/06 02:32:46;;;;;;;46.28;23.65;;;4.90;99.90;;;;;;4896810;29;20491;-74
2021/11/06 02:35:34;;;;;;;42.67;23.70;;;4.80;99.90;;;;;;4894028;29;20455;-74
2021/11/06 02:38:10;;;;;;;45.17;23.95;;;4.70;99.90;;;;;;4914976;29;20501;-75
2021/11/06 02:41:00;;;;;;;43.85;24.45;;;4.70;99.90;;;;;;4920518;29;20509;-75
2021/11/06 02:43:29;;;;;;;48.28;25.08;;;4.70;99.90;;;;;;4915893;29;20045;-74
2021/11/06 02:45:58;;;;;;;50.30;25.70;;;4.60;99.90;;;;;;4914770;29;20083;-74
2021/11/06 02:48:33;;;;;;;51.05;24.20;;;4.60;99.90;;;;;;4915660;29;20583;-74
2021/11/06 02:50:58;;;;;;;42.00;23.20;;;4.50;99.90;;;;;;4899919;29;20184;-75
2021/11/06 02:53:24;;;;;;;44.90;24.88;;;4.50;99.90;;;;;;4915740;29;20040;-75
2021/11/06 02:55:49;;;;;;;45.30;25.88;;;4.40;99.90;;;;;;4915520;29;20199;-75
2021/11/06 02:58:15;;;;;;;51.97;25.70;;;4.40;99.90;;;;;;4937434;29;20047;-75
2021/11/06 03:00:42;;;;;;;48.88;26.00;;;4.40;99.90;;;;;;4953663;29;20043;-75
2021/11/06 03:03:07;;;;;;;50.25;26.50;;;4.30;99.90;;;;;;4971230;28;20039;-75
2021/11/06 03:05:33;;;;;;;51.95;27.02;;;4.30;99.90;;;;;;4973006;28;20056;-75
2021/11/06 03:07:59;;;;;;;53.15;28.38;;;4.20;99.90;;;;;;4973002;28;20035;-74
2021/11/06 03:10:25;;;;;;;52.15;27.48;;;4.30;99.90;;;;;;4979044;28;20042;-75
2021/11/06 03:12:51;;;;;;;51.83;28.25;;;4.20;99.90;;;;;;5071569;28;20028;-74
2021/11/06 03:15:17;;;;;;;50.42;26.90;;;4.20;99.90;;;;;;5073204;28;20083;-74
2021/11/06 03:17:43;;;;;;;52.13;27.73;;;4.20;99.90;;;;;;5073564;28;20044;-75
2021/11/06 03:20:11;;;;;;;52.55;28.10;;;4.20;99.90;;;;;;5073516;28;20016;-75
2021/11/06 03:22:36;;;;;;;45.03;25.25;;;4.20;99.90;;;;;;5089072;28;20021;-75
2021/11/06 03:25:05;;;;;;;48.25;25.55;;;4.20;99.90;;;;;;5073478;28;20025;-75
2021/11/06 03:27:31;;;;;;;50.33;27.55;;;4.30;99.90;;;;;;5073373;28;20017;-75
2021/11/06 03:29:56;;;;;;;52.35;27.80;;;4.30;99.90;;;;;;5072050;28;20474;-74
2021/11/06 03:32:22;;;;;;;51.17;27.45;;;4.30;99.90;;;;;;5073314;28;20063;-74
2021/11/06 03:34:48;;;;;;;54.63;27.10;;;4.30;99.90;;;;;;5073183;28;20048;-74
2021/11/06 03:37:14;;;;;;;52.78;27.35;;;4.30;99.90;;;;;;5073292;28;20409;-74
2021/11/06 03:39:39;;;;;;;45.45;24.85;;;4.30;99.90;;;;;;5073145;28;20021;-74
2021/11/06 03:42:06;;;;;;;42.20;24.35;;;4.30;99.90;;;;;;5073228;28;20536;-74
2021/11/06 03:44:32;;;;;;;46.97;24.60;;;4.40;99.90;;;;;;5071747;28;20115;-74
2021/11/06 03:46:58;;;;;;;39.80;23.52;;;4.40;99.90;;;;;;5073183;28;20020;-74
2021/11/06 03:49:24;;;;;;;49.75;25.85;;;4.40;99.90;;;;;;5073034;28;20017;-74
2021/11/06 03:51:50;;;;;;;43.60;24.20;;;4.40;99.90;;;;;;5073025;28;20066;-74
2021/11/06 03:54:16;;;;;;;47.47;26.67;;;4.40;99.90;;;;;;5071711;28;20074;-74
2021/11/06 03:56:42;;;;;;;49.05;24.60;;;4.40;99.90;;;;;;5072984;28;20028;-74
2021/11/06 03:59:08;;;;;;;46.10;25.40;;;4.40;99.90;;;;;;5072535;28;20020;-75
2021/11/06 04:01:34;;;;;;;40.17;22.23;;;4.40;99.90;;;;;;5072936;28;20028;-75
2021/11/06 04:04:02;;;;;;;39.83;22.13;;;4.30;99.90;;;;;;5072933;28;20364;-75
2021/11/06 04:06:28;;;;;;;41.63;23.48;;;4.30;99.90;;;;;;5072931;28;20012;-74
2021/11/06 04:08:54;;;;;;;45.03;24.80;;;4.30;99.90;;;;;;5072847;28;20085;-74
2021/11/06 04:11:21;;;;;;;39.53;21.42;;;4.30;99.90;;;;;;5072851;28;20024;-74
2021/11/06 04:13:47;;;;;;;45.13;24.88;;;4.20;99.90;;;;;;5072856;28;20048;-74
2021/11/06 04:16:13;;;;;;;40.58;22.45;;;4.20;99.90;;;;;;5072781;28;20068;-74
2021/11/06 04:18:38;;;;;;;40.78;24.67;;;4.20;99.90;;;;;;5072751;28;20016;-74
2021/11/06 04:21:04;;;;;;;44.58;23.55;;;4.20;99.90;;;;;;5072763;28;20370;-75
2021/11/06 04:23:30;;;;;;;43.45;22.30;;;4.30;99.90;;;;;;5072683;28;20055;-75
2021/11/06 04:25:56;;;;;;;37.60;20.23;;;4.30;99.90;;;;;;5071453;28;20020;-75
2021/11/06 04:28:21;;;;;;;36.88;20.75;;;4.30;99.90;;;;;;5073057;28;20032;-75
2021/11/06 04:30:47;;;;;;;35.05;20.90;;;4.30;99.90;;;;;;5084068;28;20112;-75
2021/11/06 04:33:13;;;;;;;37.65;20.25;;;4.30;99.90;;;;;;5092945;28;20500;-74
2021/11/06 04:35:39;;;;;;;39.25;20.85;;;4.30;99.90;;;;;;5074698;28;20033;-74
2021/11/06 04:38:04;;;;;;;37.05;20.63;;;4.30;99.90;;;;;;5072699;28;20020;-75
2021/11/06 04:40:30;;;;;;;35.17;18.67;;;4.30;99.90;;;;;;5072532;28;20024;-74
2021/11/06 04:42:56;;;;;;;38.13;19.67;;;4.30;99.90;;;;;;5072658;28;20060;-74
2021/11/06 04:45:21;;;;;;;41.80;19.67;;;4.30;99.90;;;;;;5072500;28;20028;-74
2021/11/06 04:47:47;;;;;;;32.80;18.45;;;4.40;99.90;;;;;;5076801;28;20183;-74
2021/11/06 04:50:13;;;;;;;33.22;18.27;;;4.40;99.90;;;;;;5092628;28;20474;-74
2021/11/06 04:52:39;;;;;;;30.13;17.00;;;4.30;99.90;;;;;;5092712;28;20016;-74
2021/11/06 04:55:08;;;;;;;30.05;17.70;;;4.30;99.90;;;;;;5092557;28;20028;-74
2021/11/06 04:57:34;;;;;;;28.15;17.38;;;4.40;99.90;;;;;;5092365;28;20040;-74
2021/11/06 05:00:00;;;;;;;37.08;18.33;;;4.40;99.90;;;;;;5092588;28;20056;-74
2021/11/06 05:02:26;;;;;;;32.55;18.58;;;4.30;99.90;;;;;;5092664;28;20485;-74
2021/11/06 05:04:52;;;;;;;37.90;18.58;;;4.30;99.90;;;;;;5091162;28;20026;-74
2021/11/06 05:07:17;;;;;;;38.75;18.15;;;4.30;99.90;;;;;;5092539;28;20027;-74
2021/11/06 05:09:43;;;;;;;35.05;17.25;;;4.30;99.90;;;;;;5090578;28;20574;-75
2021/11/06 05:12:10;;;;;;;35.53;18.00;;;4.30;99.90;;;;;;5076069;28;20132;-75
2021/11/06 05:14:36;;;;;;;36.65;19.58;;;4.30;99.90;;;;;;5091541;28;20021;-75
2021/11/06 05:17:02;;;;;;;35.30;18.25;;;4.40;99.90;;;;;;5075879;28;20063;-75
2021/11/06 05:19:28;;;;;;;42.88;20.85;;;4.30;99.90;;;;;;5075539;28;20398;-74
2021/11/06 05:21:54;;;;;;;45.85;23.15;;;4.30;99.90;;;;;;5075859;28;20016;-74
2021/11/06 05:24:19;;;;;;;44.33;24.08;;;4.30;99.90;;;;;;5074450;28;20070;-74
2021/11/06 05:26:45;;;;;;;41.20;22.17;;;4.30;99.90;;;;;;5074481;28;20468;-74
2021/11/06 05:29:11;;;;;;;47.67;24.05;;;4.30;99.90;;;;;;5075692;28;20047;-74
2021/11/06 05:31:38;;;;;;;38.60;21.42;;;4.30;99.90;;;;;;5074351;28;20111;-74
2021/11/06 05:34:05;;;;;;;34.88;19.08;;;4.30;99.90;;;;;;5075674;28;20451;-74
2021/11/06 05:36:31;;;;;;;40.03;20.08;;;4.30;99.90;;;;;;5075414;28;20090;-74
2021/11/06 05:38:57;;;;;;;37.88;20.10;;;4.30;99.90;;;;;;5075542;28;20025;-74
2021/11/06 05:41:23;;;;;;;33.15;19.67;;;4.30;99.90;;;;;;5075378;28;20529;-75
2021/11/06 05:43:48;;;;;;;34.05;18.33;;;4.30;99.90;;;;;;5075409;28;20024;-75
2021/11/06 05:46:16;;;;;;;33.67;18.92;;;4.40;99.90;;;;;;5075398;28;20024;-75
2021/11/06 05:48:41;;;;;;;28.48;16.42;;;4.40;99.90;;;;;;5075635;28;20103;-75
2021/11/06 05:51:07;;;;;;;30.45;17.17;;;4.40;99.90;;;;;;5075264;28;20104;-75
2021/11/06 05:53:33;;;;;;;30.20;17.27;;;4.40;99.90;;;;;;5075191;28;20025;-75
2021/11/06 05:55:58;;;;;;;33.38;18.48;;;4.40;99.90;;;;;;5073860;28;20543;-75
2021/11/06 05:58:24;;;;;;;29.73;16.48;;;4.40;99.90;;;;;;5075185;28;20024;-75
2021/11/06 06:00:50;;;;;;;30.08;16.88;;;4.40;99.90;;;;;;5077282;28;20067;-74
2021/11/06 06:03:16;;;;;;;33.00;17.52;;;4.40;99.90;;;;;;5094040;28;20473;-75
2021/11/06 06:05:42;;;;;;;34.08;17.25;;;4.40;99.90;;;;;;5095194;28;20396;-74
2021/11/06 06:08:08;;;;;;;28.25;16.83;;;4.40;99.90;;;;;;5094021;28;20027;-75
2021/11/06 06:10:33;;;;;;;32.22;16.92;;;4.50;99.90;;;;;;5095517;28;20036;-75
2021/11/06 06:12:59;;;;;;;32.28;18.00;;;4.50;99.90;;;;;;5093949;28;20179;-74
2021/11/06 06:15:25;;;;;;;30.50;18.88;;;4.50;99.90;;;;;;5094364;28;20063;-74
2021/11/06 06:17:52;;;;;;;37.33;19.48;;;4.50;99.90;;;;;;5093654;28;20081;-74
2021/11/06 06:20:19;;;;;;;39.45;21.85;;;4.50;99.90;;;;;;5093637;28;20393;-74
2021/11/06 06:22:45;;;;;;;40.00;21.73;;;4.50;99.90;;;;;;5093276;28;20067;-74
2021/11/06 06:25:13;;;;;;;48.30;23.05;;;4.50;99.90;;;;;;5094631;28;20115;-74
2021/11/06 06:27:39;;;;;;;39.78;22.55;;;4.50;99.90;;;;;;5094862;28;20023;-74
2021/11/06 06:30:08;;;;;;;35.72;19.45;;;4.60;99.90;;;;;;5094815;28;20097;-74
2021/11/06 06:32:34;;;;;;;33.67;18.20;;;4.60;99.90;;;;;;5094341;28;20397;-74
2021/11/06 06:34:59;;;;;;;42.53;20.45;;;4.60;99.90;;;;;;5094595;28;20024;-74
2021/11/06 06:37:25;;;;;;;39.13;18.75;;;4.60;99.90;;;;;;5094639;28;20028;-74
2021/11/06 06:39:51;;;;;;;38.95;19.42;;;4.60;99.90;;;;;;5087493;28;20036;-74
2021/11/06 06:42:17;;;;;;;39.42;20.55;;;4.60;99.90;;;;;;5084066;27;20394;-74
2021/11/06 06:44:44;;;;;;;31.98;18.77;;;4.60;99.90;;;;;;5092684;28;20027;-75
2021/11/06 06:47:12;;;;;;;32.53;17.73;;;4.60;99.90;;;;;;5092079;28;20032;-75
2021/11/06 06:49:38;;;;;;;41.17;20.92;;;4.50;99.90;;;;;;5093567;28;20058;-75
2021/11/06 06:52:05;;;;;;;38.83;19.77;;;4.50;99.90;;;;;;5093865;27;20036;-74
2021/11/06 06:54:30;;;;;;;34.45;18.42;;;4.50;99.90;;;;;;5093397;28;20466;-74
2021/11/06 06:56:56;;;;;;;38.30;17.63;;;4.50;99.90;;;;;;5093674;27;20047;-74
2021/11/06 06:59:21;;;;;;;30.73;17.75;;;4.40;99.90;;;;;;5091783;28;20017;-74
2021/11/06 07:01:47;;;;;;;31.92;17.98;;;4.50;99.90;;;;;;5092084;27;20028;-74
2021/11/06 07:04:14;;;;;;;35.85;18.75;;;4.50;99.90;;;;;;5093461;28;20034;-74
2021/11/06 07:06:39;;;;;;;35.53;17.67;;;4.50;99.90;;;;;;5093210;27;20115;-74
2021/11/06 07:09:05;;;;;;;37.10;19.10;;;4.50;99.90;;;;;;5093642;28;20111;-75
2021/11/06 07:11:31;;;;;;;32.33;18.55;;;4.50;99.90;;;;;;5093221;28;20016;-74
2021/11/06 07:13:56;;;;;;;33.63;16.75;;;4.60;99.90;;;;;;5091710;28;20427;-74
2021/11/06 07:16:23;;;;;;;35.15;16.33;;;4.60;99.90;;;;;;5093163;28;20570;-75
2021/11/06 07:18:48;;;;;;;33.50;18.65;;;4.70;99.90;;;;;;5086802;27;20070;-75
2021/11/06 07:21:14;;;;;;;30.60;16.65;;;4.80;99.90;;;;;;5091709;28;20489;-75
2021/11/06 07:23:39;;;;;;;31.90;16.52;;;4.90;99.90;;;;;;5092458;27;20077;-74
2021/11/06 07:26:05;;;;;;;29.35;16.17;;;5.00;99.90;;;;;;5093030;28;20477;-75
2021/11/06 07:28:31;;;;;;;34.10;17.23;;;5.10;99.90;;;;;;5092297;27;20444;-74
2021/11/06 07:30:59;;;;;;;34.85;17.92;;;5.20;99.90;;;;;;5092757;28;20024;-75
2021/11/06 07:33:24;;;;;;;34.33;17.88;;;5.30;99.90;;;;;;5090392;27;20045;-75
2021/11/06 07:35:50;;;;;;;29.38;17.15;;;5.40;99.90;;;;;;5091599;28;20160;-75
2021/11/06 07:38:16;;;;;;;33.42;17.88;;;5.50;99.90;;;;;;5091345;28;20521;-74
2021/11/06 07:40:42;;;;;;;31.13;17.42;;;5.50;99.90;;;;;;5088392;28;20076;-75
2021/11/06 07:43:08;;;;;;;32.45;17.20;;;5.60;99.90;;;;;;5088530;28;20039;-75
2021/11/06 07:45:34;;;;;;;38.50;18.70;;;5.60;99.90;;;;;;5090082;28;20089;-75
2021/11/06 07:48:01;;;;;;;40.85;20.98;;;5.60;99.90;;;;;;5092428;27;20491;-74
2021/11/06 07:50:27;;;;;;;37.35;19.58;;;5.80;99.90;;;;;;5091850;28;20020;-75
2021/11/06 07:52:52;;;;;;;38.78;20.17;;;5.90;99.90;;;;;;5092438;27;20163;-75
2021/11/06 07:55:18;;;;;;;55.30;23.90;;;5.90;99.90;;;;;;5092083;28;20386;-75
2021/11/06 07:57:44;;;;;;;47.33;21.55;;;5.90;99.90;;;;;;5090175;28;20027;-75
2021/11/06 08:00:13;;;;;;;42.33;19.63;;;6.00;99.90;;;;;;5090601;28;20054;-75
2021/11/06 08:02:40;;;;;;;45.53;21.25;;;6.00;99.90;;;;;;5090238;28;20036;-75
2021/11/06 08:05:10;;;;;;;66.90;23.25;;;6.10;99.90;;;;;;5091009;28;20024;-75
2021/11/06 08:07:36;;;;;;;40.47;20.55;;;6.20;99.90;;;;;;5091556;27;20051;-74
2021/11/06 08:10:03;;;;;;;58.85;26.88;;;6.40;99.90;;;;;;5092257;28;20510;-75
2021/11/06 08:12:30;;;;;;;41.90;20.35;;;6.60;99.90;;;;;;5090209;28;20461;-75
2021/11/06 08:14:56;;;;;;;46.97;22.55;;;6.90;99.90;;;;;;5091448;28;20012;-75
2021/11/06 08:17:22;;;;;;;50.10;23.13;;;7.00;99.90;;;;;;5090950;28;20032;-75
2021/11/06 08:19:47;;;;;;;43.35;22.73;;;7.00;99.90;;;;;;5090130;28;20111;-75
2021/11/06 08:22:14;;;;;;;43.30;21.50;;;7.10;99.90;;;;;;5092346;28;20024;-75
2021/11/06 08:24:40;;;;;;;48.80;24.17;;;7.00;99.90;;;;;;5091342;28;20028;-75
2021/11/06 08:27:06;;;;;;;46.53;23.48;;;7.00;99.90;;;;;;5091651;28;20109;-74
2021/11/06 08:29:32;;;;;;;40.58;21.65;;;7.10;99.90;;;;;;5091743;28;20066;-75
2021/11/06 08:31:59;;;;;;;41.10;22.08;;;7.20;99.90;;;;;;5092157;28;20036;-75
2021/11/06 08:34:26;;;;;;;34.13;19.45;;;7.30;99.90;;;;;;5091053;27;20474;-75
2021/11/06 08:36:53;;;;;;;42.00;22.63;;;7.30;99.90;;;;;;5090628;28;20075;-75
2021/11/06 08:39:20;;;;;;;38.25;19.85;;;7.40;99.90;;;;;;5088664;27;20040;-74
2021/11/06 08:41:47;;;;;;;41.45;20.25;;;7.60;99.90;;;;;;5087066;28;20019;-74
2021/11/06 08:44:18;;;;;;;42.72;20.67;;;7.70;99.90;;;;;;5086654;28;20028;-75
2021/11/06 08:46:45;;;;;;;32.80;18.15;;;7.70;99.90;;;;;;5092885;28;20011;-75
2021/11/06 08:49:15;;;;;;;28.75;16.35;;;7.60;99.90;;;;;;5091150;28;20032;-74
2021/11/06 08:51:52;;;;;;;27.20;15.45;;;7.70;99.90;;;;;;5093830;28;20050;-75
2021/11/06 08:54:19;;;;;;;29.27;16.95;;;7.70;99.90;;;;;;5092403;27;20020;-74
2021/11/06 08:56:46;;;;;;;27.23;16.63;;;7.80;99.90;;;;;;5094277;28;20031;-75
2021/11/06 08:59:15;;;;;;;26.60;13.95;;;7.90;99.90;;;;;;5094319;27;20036;-75
2021/11/06 09:01:42;;;;;;;25.60;14.80;;;8.00;99.90;;;;;;5094184;28;20485;-75
2021/11/06 09:04:07;;;;;;;21.60;14.00;;;8.00;99.90;;;;;;5095662;27;20110;-75
2021/11/06 09:06:34;;;;;;;25.60;13.68;;;8.10;99.90;;;;;;5095310;28;20471;-75
2021/11/06 09:09:05;;;;;;;25.38;13.75;;;8.10;99.90;;;;;;5094036;28;20131;-74
2021/11/06 09:11:31;;;;;;;23.83;14.38;;;8.10;99.90;;;;;;5093776;28;20028;-74
2021/11/06 09:13:57;;;;;;;24.55;12.52;;;8.10;99.90;;;;;;5094183;27;20039;-75
2021/11/06 09:16:23;;;;;;;19.27;12.77;;;8.20;99.90;;;;;;5094589;28;20032;-75
2021/11/06 09:18:49;;;;;;;22.95;13.35;;;8.20;99.90;;;;;;5093478;28;20078;-75
2021/11/06 09:21:19;;;;;;;17.88;10.65;;;8.20;99.90;;;;;;5091433;28;20043;-75
2021/11/06 09:23:48;;;;;;;20.70;11.65;;;8.20;99.90;;;;;;5091540;27;20028;-74
2021/11/06 09:26:14;;;;;;;19.15;12.13;;;8.30;99.90;;;;;;5092627;28;20016;-75
2021/11/06 09:28:41;;;;;;;24.38;12.90;;;8.20;99.90;;;;;;5095107;27;20484;-75
2021/11/06 09:31:11;;;;;;;23.52;14.63;;;8.30;99.90;;;;;;5093552;28;20397;-74
2021/11/06 09:33:38;;;;;;;20.05;11.73;;;8.40;99.90;;;;;;5094255;28;20136;-75
2021/11/06 09:36:04;;;;;;;19.23;11.77;;;8.40;99.50;;;;;;5096235;28;20028;-74
2021/11/06 09:38:30;;;;;;;20.33;11.75;;;8.50;98.90;;;;;;5104573;28;20488;-75
2021/11/06 09:41:03;;;;;;;22.02;11.77;;;8.50;94.60;;;;;;5095288;28;20109;-75
2021/11/06 09:43:29;;;;;;;84.55;48.30;;;8.60;95.80;;;;;;5095206;28;20020;-76
2021/11/06 09:45:57;;;;;;;21.50;12.82;;;8.70;94.90;;;;;;5095322;28;20035;-75
2021/11/06 09:48:23;;;;;;;36.60;18.42;;;8.70;93.10;;;;;;5088038;28;20033;-75
2021/11/06 09:50:51;;;;;;;23.67;12.45;;;8.80;93.20;;;;;;5088226;28;20040;-75
2021/11/06 09:53:17;;;;;;;19.67;9.68;;;8.80;88.90;;;;;;5094113;28;20020;-75
2021/11/06 09:55:44;;;;;;;18.05;9.63;;;8.80;86.70;;;;;;5093434;27;20505;-75
2021/11/06 09:58:10;;;;;;;16.40;9.38;;;8.80;86.00;;;;;;5094505;28;20101;-74
2021/11/06 10:00:37;;;;;;;16.45;8.73;;;8.70;83.40;;;;;;5092940;28;20055;-75
2021/11/06 10:03:03;;;;;;;14.45;8.20;;;8.90;83.40;;;;;;5094434;28;20009;-75
2021/11/06 10:05:46;;;;;;;13.77;8.05;;;8.90;82.10;;;;;;5094195;27;20475;-75
2021/11/06 10:08:38;;;;;;;18.60;8.52;;;9.00;83.00;;;;;;5093901;28;20020;-75
2021/11/06 10:11:10;;;;;;;14.80;8.27;;;9.10;83.40;;;;;;5088868;27;20043;-75
2021/11/06 10:13:47;;;;;;;13.30;7.80;;;9.10;80.00;;;;;;5089209;28;20274;-75
2021/11/06 10:16:13;;;;;;;14.05;7.72;;;9.10;80.70;;;;;;5091765;27;20076;-75
2021/11/06 10:18:39;;;;;;;15.77;8.60;;;9.00;78.80;;;;;;5094121;28;20112;-75
2021/11/06 10:21:07;;;;;;;19.85;9.20;;;9.10;80.80;;;;;;5094310;27;20040;-75
2021/11/06 10:23:43;;;;;;;15.23;8.25;;;9.00;78.90;;;;;;5093153;28;20024;-75
2021/11/06 10:26:19;;;;;;;13.43;7.90;;;9.00;78.30;;;;;;5094282;27;20032;-73
2021/11/06 10:28:53;;;;;;;13.63;8.70;;;9.00;79.20;;;;;;5091014;28;20036;-73
2021/11/06 10:31:19;;;;;;;20.42;8.85;;;8.90;79.80;;;;;;5093287;28;20036;-73
2021/11/06 10:33:49;;;;;;;13.00;6.97;;;8.80;78.70;;;;;;5093072;28;20031;-73
2021/11/06 10:36:25;;;;;;;13.00;7.93;;;8.90;80.50;;;;;;5092116;27;20048;-73
2021/11/06 10:39:00;;;;;;;12.27;6.75;;;9.00;80.40;;;;;;5091817;28;20378;-73
2021/11/06 10:41:30;;;;;;;14.30;8.10;;;9.10;80.40;;;;;;5091744;27;20032;-73
2021/11/06 10:43:56;;;;;;;12.38;6.95;;;9.20;78.60;;;;;;5091201;28;20550;-73
2021/11/06 10:46:28;;;;;;;11.25;6.68;;;9.30;77.70;;;;;;5092032;28;20024;-73
2021/11/06 10:48:55;;;;;;;10.88;7.10;;;9.40;80.20;;;;;;5090492;28;20462;-73
2021/11/06 10:51:21;;;;;;;19.50;10.57;;;9.50;78.00;;;;;;5092615;28;20040;-73
2021/11/06 10:53:51;;;;;;;11.80;7.65;;;9.50;77.90;;;;;;5092654;28;20032;-73
2021/11/06 10:56:24;;;;;;;13.45;7.10;;;9.60;75.60;;;;;;5091492;28;20044;-74
2021/11/06 10:58:52;;;;;;;11.98;7.10;;;9.50;74.60;;;;;;5092640;28;20020;-73
2021/11/06 11:01:24;;;;;;;10.93;6.80;;;9.60;74.80;;;;;;5091924;28;20036;-73
2021/11/06 11:03:55;;;;;;;9.93;5.82;;;9.60;74.10;;;;;;5090997;28;20024;-73
2021/11/06 11:06:33;;;;;;;14.27;7.80;;;9.70;75.50;;;;;;5090743;28;20490;-73
2021/11/06 11:08:59;;;;;;;10.27;5.68;;;9.70;73.80;;;;;;5089571;28;20079;-73
2021/11/06 11:11:29;;;;;;;10.38;6.30;;;9.80;73.20;;;;;;5092964;27;20398;-73
2021/11/06 11:14:21;;;;;;;11.05;6.70;;;9.80;75.00;;;;;;5093214;28;20016;-73
2021/11/06 11:16:58;;;;;;;9.05;5.30;;;9.80;75.30;;;;;;5093174;27;20091;-73
2021/11/06 11:19:35;;;;;;;6.35;4.95;;;9.90;72.80;;;;;;5090431;28;20081;-73
2021/11/06 11:22:02;;;;;;;9.77;7.22;;;9.90;73.00;;;;;;5091529;28;20024;-74
2021/11/06 11:24:28;;;;;;;10.63;6.38;;;9.90;73.60;;;;;;5088420;28;20020;-73
2021/11/06 11:26:56;;;;;;;6.45;3.97;;;9.90;72.20;;;;;;5092791;27;20042;-73
2021/11/06 11:29:32;;;;;;;8.02;4.28;;;9.90;68.50;;;;;;5092133;28;20020;-73
2021/11/06 11:31:58;;;;;;;7.03;4.68;;;9.80;66.80;;;;;;5093155;28;20020;-73
2021/11/06 11:34:25;;;;;;;9.20;5.55;;;9.90;67.50;;;;;;5091899;28;20035;-73
2021/11/06 11:36:53;;;;;;;18.65;8.80;;;10.00;67.00;;;;;;5092153;27;20429;-72
2021/11/06 11:39:21;;;;;;;11.02;4.70;;;10.10;66.70;;;;;;5092123;28;20012;-73
2021/11/06 11:42:24;;;;;;;6.03;4.20;;;10.10;66.60;;;;;;5092677;27;20035;-74
2021/11/06 11:45:18;;;;;;;7.65;4.70;;;10.10;64.80;;;;;;5090663;27;20035;-73
2021/11/06 11:48:04;;;;;;;5.85;4.05;;;9.80;65.00;;;;;;5092258;28;20012;-73
2021/11/06 11:50:35;;;;;;;9.73;3.60;;;9.70;65.70;;;;;;5091858;27;20078;-73
2021/11/06 11:53:03;;;;;;;6.10;4.25;;;9.70;65.40;;;;;;5090913;28;20027;-73
2021/11/06 11:55:30;;;;;;;8.02;4.60;;;9.70;66.90;;;;;;5091942;27;20076;-72
2021/11/06 11:58:16;;;;;;;11.23;6.20;;;9.80;67.70;;;;;;5092671;28;20020;-73
2021/11/06 12:00:47;;;;;;;7.53;4.72;;;9.80;67.20;;;;;;5091236;27;20074;-73
2021/11/06 12:03:26;;;;;;;12.57;6.70;;;9.70;66.20;;;;;;5092713;28;20012;-73
2021/11/06 12:05:52;;;;;;;9.05;5.38;;;9.70;67.00;;;;;;5089254;27;20040;-72
2021/11/06 12:08:20;;;;;;;14.05;6.10;;;9.60;66.30;;;;;;5090283;28;20027;-73
2021/11/06 12:11:00;;;;;;;15.45;6.90;;;9.60;66.10;;;;;;5087317;28;20036;-73
2021/11/06 12:13:30;;;;;;;4.93;3.30;;;9.60;67.60;;;;;;5092229;28;20024;-73
2021/11/06 12:16:00;;;;;;;8.02;3.88;;;9.60;65.00;;;;;;5090038;28;20577;-73
2021/11/06 12:18:35;;;;;;;8.10;4.88;;;9.60;66.00;;;;;;5078065;28;20009;-73
2021/11/06 12:21:21;;;;;;;7.65;5.00;;;9.60;65.90;;;;;;5071087;28;20039;-73
2021/11/06 12:23:51;;;;;;;15.13;6.50;;;9.60;66.60;;;;;;5089433;28;20436;-74
2021/11/06 12:26:20;;;;;;;10.77;6.18;;;9.70;66.60;;;;;;5091677;27;20067;-74
2021/11/06 12:28:48;;;;;;;15.88;7.55;;;9.80;66.90;;;;;;5090070;28;20428;-75
2021/11/06 12:31:37;;;;;;;14.95;7.72;;;9.80;66.00;;;;;;5078862;28;20453;-75
2021/11/06 12:34:05;;;;;;;9.23;5.80;;;9.80;66.70;;;;;;5089972;28;20359;-74
2021/11/06 12:36:32;;;;;;;12.00;6.15;;;9.70;66.20;;;;;;5089965;28;20035;-74
2021/11/06 12:39:02;;;;;;;12.35;6.13;;;9.60;66.10;;;;;;5097442;28;20043;-74
2021/11/06 12:41:30;;;;;;;9.45;6.00;;;9.60;66.40;;;;;;5091166;28;20026;-74
2021/11/06 12:43:58;;;;;;;12.55;6.90;;;9.60;66.70;;;;;;5089709;28;20091;-74
2021/11/06 12:46:27;;;;;;;17.23;8.23;;;9.50;67.10;;;;;;5088527;28;20468;-74
2021/11/06 12:49:03;;;;;;;16.45;8.93;;;9.40;68.10;;;;;;5089066;28;20020;-74
2021/11/06 12:51:35;;;;;;;12.25;7.15;;;9.40;67.40;;;;;;5088220;28;20401;-74